Holland, Minnesota
Current Conditions -  °F | °C
As of 4:54 PM on Monday 24 Nov 2014 (Local Time) from KPQN Reporting Station
Scattered Clouds Scattered Clouds  
Wind Chill:   Ceiling: Unl
Heat Index: 21°   Visibility: 10mi
Dew Point: 16°   Wind: 23mph
Humidity: 80%   Direction: 330°NNW
Pressure: 29.81"   Gusts: 32mph
Location:  44.09°N, 96.19°W
Report Text: KPQN 242254Z AUTO 33020G28KT 10SM SCT024 M06/M09 A2981 RMK AO2
Loading
Personal Weather Stations






























Interactive Weather Map New forecast layout! Learn more

10-Day Weather Forecast

Advertisements
Track Severe Weather on mobile